Terminal Aerodrome Forecast
Issued by NWS

Home | Current Version | Previous Version | Graphics & Text | Print | Product List | Glossary On
Versions: 1 2 3 4 5 6 7 8 9 10 11 12 13 14 15
000
FTUS43 KPAH 101700
TAFCGI
TAF
KCGI 101730Z 1018/1118 03006KT P6SM BKN250
     FM110100 09002KT P6SM SCT250
      TEMPO 1109/1111 4SM BR
     FM111400 13005KT P6SM SCT250=

USA.gov is the U.S. government's official web portal to all federal, state and local government web resources and services.